sensor_id;sensor_type;location;lat;lon;timestamp;temperature;humidity
10660;DHT22;5378;53.206;13.316;2023-02-22T00:00:39;3.90;99.90
10660;DHT22;5378;53.206;13.316;2023-02-22T00:03:30;4.00;99.90
10660;DHT22;5378;53.206;13.316;2023-02-22T00:06:20;3.90;99.90
10660;DHT22;5378;53.206;13.316;2023-02-22T00:09:09;3.80;99.90
10660;DHT22;5378;53.206;13.316;2023-02-22T00:11:57;3.70;99.90
10660;DHT22;5378;53.206;13.316;2023-02-22T00:14:45;3.80;99.90
10660;DHT22;5378;53.206;13.316;2023-02-22T00:17:32;3.80;99.90
10660;DHT22;5378;53.206;13.316;2023-02-22T00:20:20;3.70;99.90
10660;DHT22;5378;53.206;13.316;2023-02-22T00:23:13;3.60;99.90
10660;DHT22;5378;53.206;13.316;2023-02-22T00:26:00;3.60;99.90
10660;DHT22;5378;53.206;13.316;2023-02-22T00:28:49;3.50;99.90
10660;DHT22;5378;53.206;13.316;2023-02-22T00:31:37;3.60;99.90
10660;DHT22;5378;53.206;13.316;2023-02-22T00:34:24;3.60;99.90
10660;DHT22;5378;53.206;13.316;2023-02-22T00:37:12;3.60;99.90
10660;DHT22;5378;53.206;13.316;2023-02-22T00:39:59;3.50;99.90
10660;DHT22;5378;53.206;13.316;2023-02-22T00:42:46;3.50;99.90
10660;DHT22;5378;53.206;13.316;2023-02-22T00:45:34;3.50;99.90
10660;DHT22;5378;53.206;13.316;2023-02-22T00:48:23;3.40;99.90
10660;DHT22;5378;53.206;13.316;2023-02-22T00:51:10;3.30;99.90
10660;DHT22;5378;53.206;13.316;2023-02-22T00:53:58;3.20;99.90
10660;DHT22;5378;53.206;13.316;2023-02-22T00:56:44;3.10;99.90
10660;DHT22;5378;53.206;13.316;2023-02-22T00:59:31;3.10;99.90
10660;DHT22;5378;53.206;13.316;2023-02-22T01:02:19;3.00;99.90
10660;DHT22;5378;53.206;13.316;2023-02-22T01:05:09;2.90;99.90
10660;DHT22;5378;53.206;13.316;2023-02-22T01:07:58;3.00;99.90
10660;DHT22;5378;53.206;13.316;2023-02-22T01:10:46;2.90;99.90
10660;DHT22;5378;53.206;13.316;2023-02-22T01:13:33;2.80;99.90
10660;DHT22;5378;53.206;13.316;2023-02-22T01:16:20;2.80;99.90
10660;DHT22;5378;53.206;13.316;2023-02-22T01:19:07;2.80;99.90
10660;DHT22;5378;53.206;13.316;2023-02-22T01:21:56;2.90;99.90
10660;DHT22;5378;53.206;13.316;2023-02-22T01:24:44;2.80;99.90
10660;DHT22;5378;53.206;13.316;2023-02-22T01:27:30;2.70;99.90
10660;DHT22;5378;53.206;13.316;2023-02-22T01:30:20;2.70;99.90
10660;DHT22;5378;53.206;13.316;2023-02-22T01:33:09;2.80;99.90
10660;DHT22;5378;53.206;13.316;2023-02-22T01:35:57;2.80;99.90
10660;DHT22;5378;53.206;13.316;2023-02-22T01:38:46;2.70;99.90
10660;DHT22;5378;53.206;13.316;2023-02-22T01:41:33;2.70;99.90
10660;DHT22;5378;53.206;13.316;2023-02-22T01:44:26;2.70;99.90
10660;DHT22;5378;53.206;13.316;2023-02-22T01:47:16;2.60;99.90
10660;DHT22;5378;53.206;13.316;2023-02-22T01:50:05;2.60;99.90
10660;DHT22;5378;53.206;13.316;2023-02-22T01:52:55;2.60;99.90
10660;DHT22;5378;53.206;13.316;2023-02-22T01:55:45;2.50;99.90
10660;DHT22;5378;53.206;13.316;2023-02-22T01:58:34;2.50;99.90
10660;DHT22;5378;53.206;13.316;2023-02-22T02:01:23;2.50;99.90
10660;DHT22;5378;53.206;13.316;2023-02-22T02:04:14;2.40;99.90
10660;DHT22;5378;53.206;13.316;2023-02-22T02:07:04;2.50;99.90
10660;DHT22;5378;53.206;13.316;2023-02-22T02:09:57;2.40;99.90
10660;DHT22;5378;53.206;13.316;2023-02-22T02:12:48;2.50;99.90
10660;DHT22;5378;53.206;13.316;2023-02-22T02:15:35;2.50;99.90
10660;DHT22;5378;53.206;13.316;2023-02-22T02:18:23;2.50;99.90
10660;DHT22;5378;53.206;13.316;2023-02-22T02:21:49;2.50;99.90
10660;DHT22;5378;53.206;13.316;2023-02-22T02:28:26;2.30;99.90
10660;DHT22;5378;53.206;13.316;2023-02-22T02:31:57;2.30;99.90
10660;DHT22;5378;53.206;13.316;2023-02-22T02:34:49;2.20;99.90
10660;DHT22;5378;53.206;13.316;2023-02-22T02:37:46;2.20;99.90
10660;DHT22;5378;53.206;13.316;2023-02-22T02:40:38;2.30;99.90
10660;DHT22;5378;53.206;13.316;2023-02-22T02:43:32;2.20;99.90
10660;DHT22;5378;53.206;13.316;2023-02-22T02:46:25;2.10;99.90
10660;DHT22;5378;53.206;13.316;2023-02-22T02:49:21;2.10;99.90
10660;DHT22;5378;53.206;13.316;2023-02-22T02:52:11;2.10;99.90
10660;DHT22;5378;53.206;13.316;2023-02-22T02:55:00;2.10;99.90
10660;DHT22;5378;53.206;13.316;2023-02-22T02:57:48;2.20;99.90
10660;DHT22;5378;53.206;13.316;2023-02-22T03:00:38;2.10;99.90
10660;DHT22;5378;53.206;13.316;2023-02-22T03:03:44;2.00;99.90
10660;DHT22;5378;53.206;13.316;2023-02-22T03:06:44;2.00;99.90
10660;DHT22;5378;53.206;13.316;2023-02-22T03:09:40;2.00;99.90
10660;DHT22;5378;53.206;13.316;2023-02-22T03:12:37;2.00;99.90
10660;DHT22;5378;53.206;13.316;2023-02-22T03:15:35;1.90;99.90
10660;DHT22;5378;53.206;13.316;2023-02-22T03:18:28;1.90;99.90
10660;DHT22;5378;53.206;13.316;2023-02-22T03:21:23;1.90;99.90
10660;DHT22;5378;53.206;13.316;2023-02-22T03:24:16;1.80;99.90
10660;DHT22;5378;53.206;13.316;2023-02-22T03:27:08;1.70;99.90
10660;DHT22;5378;53.206;13.316;2023-02-22T03:30:06;1.70;99.90
10660;DHT22;5378;53.206;13.316;2023-02-22T03:33:01;1.70;99.90
10660;DHT22;5378;53.206;13.316;2023-02-22T03:35:57;1.70;99.90
10660;DHT22;5378;53.206;13.316;2023-02-22T03:38:45;1.70;99.90
10660;DHT22;5378;53.206;13.316;2023-02-22T03:41:35;1.80;99.90
10660;DHT22;5378;53.206;13.316;2023-02-22T03:44:26;1.70;99.90
10660;DHT22;5378;53.206;13.316;2023-02-22T03:47:21;1.70;99.90
10660;DHT22;5378;53.206;13.316;2023-02-22T03:50:12;1.80;99.90
10660;DHT22;5378;53.206;13.316;2023-02-22T03:53:01;1.60;99.90
10660;DHT22;5378;53.206;13.316;2023-02-22T03:55:51;1.50;99.90
10660;DHT22;5378;53.206;13.316;2023-02-22T03:58:43;1.50;99.90
10660;DHT22;5378;53.206;13.316;2023-02-22T04:01:34;1.50;99.90
10660;DHT22;5378;53.206;13.316;2023-02-22T04:04:21;1.50;99.90
10660;DHT22;5378;53.206;13.316;2023-02-22T04:07:10;1.60;99.90
10660;DHT22;5378;53.206;13.316;2023-02-22T04:09:57;1.60;99.90
10660;DHT22;5378;53.206;13.316;2023-02-22T04:12:44;1.60;99.90
10660;DHT22;5378;53.206;13.316;2023-02-22T04:15:33;1.50;99.90
10660;DHT22;5378;53.206;13.316;2023-02-22T04:18:23;1.60;99.90
10660;DHT22;5378;53.206;13.316;2023-02-22T04:21:10;1.60;99.90
10660;DHT22;5378;53.206;13.316;2023-02-22T04:24:01;1.60;99.90
10660;DHT22;5378;53.206;13.316;2023-02-22T04:26:49;1.50;99.90
10660;DHT22;5378;53.206;13.316;2023-02-22T04:29:38;1.60;99.90
10660;DHT22;5378;53.206;13.316;2023-02-22T04:32:26;1.60;99.90
10660;DHT22;5378;53.206;13.316;2023-02-22T04:35:14;1.80;99.90
10660;DHT22;5378;53.206;13.316;2023-02-22T04:38:00;1.90;99.90
10660;DHT22;5378;53.206;13.316;2023-02-22T04:40:50;2.10;99.90
10660;DHT22;5378;53.206;13.316;2023-02-22T04:43:38;2.20;99.90
10660;DHT22;5378;53.206;13.316;2023-02-22T04:46:40;2.20;99.90
10660;DHT22;5378;53.206;13.316;2023-02-22T04:49:31;2.20;99.90
10660;DHT22;5378;53.206;13.316;2023-02-22T04:52:19;2.20;99.90
10660;DHT22;5378;53.206;13.316;2023-02-22T04:55:07;2.00;99.90
10660;DHT22;5378;53.206;13.316;2023-02-22T04:57:56;2.00;99.90
10660;DHT22;5378;53.206;13.316;2023-02-22T05:00:43;2.10;99.90
10660;DHT22;5378;53.206;13.316;2023-02-22T05:03:30;1.90;99.90
10660;DHT22;5378;53.206;13.316;2023-02-22T05:06:18;1.80;99.90
10660;DHT22;5378;53.206;13.316;2023-02-22T05:09:06;1.60;99.90
10660;DHT22;5378;53.206;13.316;2023-02-22T05:11:53;1.60;99.90
10660;DHT22;5378;53.206;13.316;2023-02-22T05:14:40;1.60;99.90
10660;DHT22;5378;53.206;13.316;2023-02-22T05:17:29;1.60;99.90
10660;DHT22;5378;53.206;13.316;2023-02-22T05:20:20;1.60;99.90
10660;DHT22;5378;53.206;13.316;2023-02-22T05:23:09;1.70;99.90
10660;DHT22;5378;53.206;13.316;2023-02-22T05:25:56;1.70;99.90
10660;DHT22;5378;53.206;13.316;2023-02-22T05:28:43;1.70;99.90
10660;DHT22;5378;53.206;13.316;2023-02-22T05:31:30;1.80;99.90
10660;DHT22;5378;53.206;13.316;2023-02-22T05:34:17;1.90;99.90
10660;DHT22;5378;53.206;13.316;2023-02-22T05:37:05;1.90;99.90
10660;DHT22;5378;53.206;13.316;2023-02-22T05:39:53;1.80;99.90
10660;DHT22;5378;53.206;13.316;2023-02-22T05:42:41;1.70;99.90
10660;DHT22;5378;53.206;13.316;2023-02-22T05:45:28;1.60;99.90
10660;DHT22;5378;53.206;13.316;2023-02-22T05:48:16;1.60;99.90
10660;DHT22;5378;53.206;13.316;2023-02-22T05:51:03;1.50;99.90
10660;DHT22;5378;53.206;13.316;2023-02-22T05:53:50;1.40;99.90
10660;DHT22;5378;53.206;13.316;2023-02-22T05:56:39;1.30;99.90
10660;DHT22;5378;53.206;13.316;2023-02-22T05:59:26;1.30;99.90
10660;DHT22;5378;53.206;13.316;2023-02-22T06:02:14;1.20;99.90
10660;DHT22;5378;53.206;13.316;2023-02-22T06:05:01;1.20;99.90
10660;DHT22;5378;53.206;13.316;2023-02-22T06:07:48;1.10;99.90
10660;DHT22;5378;53.206;13.316;2023-02-22T06:10:35;1.20;99.90
10660;DHT22;5378;53.206;13.316;2023-02-22T06:13:23;1.20;99.90
10660;DHT22;5378;53.206;13.316;2023-02-22T06:16:11;1.20;99.90
10660;DHT22;5378;53.206;13.316;2023-02-22T06:18:58;1.20;99.90
10660;DHT22;5378;53.206;13.316;2023-02-22T06:21:48;1.30;99.90
10660;DHT22;5378;53.206;13.316;2023-02-22T06:24:37;1.30;99.90
10660;DHT22;5378;53.206;13.316;2023-02-22T06:27:25;1.30;99.90
10660;DHT22;5378;53.206;13.316;2023-02-22T06:30:15;1.30;99.90
10660;DHT22;5378;53.206;13.316;2023-02-22T06:33:03;1.30;99.90
10660;DHT22;5378;53.206;13.316;2023-02-22T06:35:50;1.30;99.90
10660;DHT22;5378;53.206;13.316;2023-02-22T06:38:37;1.30;99.90
10660;DHT22;5378;53.206;13.316;2023-02-22T06:41:24;1.30;99.90
10660;DHT22;5378;53.206;13.316;2023-02-22T06:44:13;1.60;99.90
10660;DHT22;5378;53.206;13.316;2023-02-22T06:47:01;1.70;99.90
10660;DHT22;5378;53.206;13.316;2023-02-22T06:49:51;1.70;99.90
10660;DHT22;5378;53.206;13.316;2023-02-22T06:52:41;1.80;99.90
10660;DHT22;5378;53.206;13.316;2023-02-22T06:55:30;1.90;99.90
10660;DHT22;5378;53.206;13.316;2023-02-22T06:58:17;1.80;99.90
10660;DHT22;5378;53.206;13.316;2023-02-22T07:01:04;2.10;99.90
10660;DHT22;5378;53.206;13.316;2023-02-22T07:03:54;2.10;99.90
10660;DHT22;5378;53.206;13.316;2023-02-22T07:06:44;2.20;99.90
10660;DHT22;5378;53.206;13.316;2023-02-22T07:09:31;2.20;99.90
10660;DHT22;5378;53.206;13.316;2023-02-22T07:12:18;2.20;99.90
10660;DHT22;5378;53.206;13.316;2023-02-22T07:15:06;2.40;99.90
10660;DHT22;5378;53.206;13.316;2023-02-22T07:17:53;2.50;99.90
10660;DHT22;5378;53.206;13.316;2023-02-22T07:20:42;2.60;99.90
10660;DHT22;5378;53.206;13.316;2023-02-22T07:23:29;2.80;99.90
10660;DHT22;5378;53.206;13.316;2023-02-22T07:26:16;2.90;99.90
10660;DHT22;5378;53.206;13.316;2023-02-22T07:29:03;3.00;99.90
10660;DHT22;5378;53.206;13.316;2023-02-22T07:31:50;3.00;99.90
10660;DHT22;5378;53.206;13.316;2023-02-22T07:34:38;3.00;99.90
10660;DHT22;5378;53.206;13.316;2023-02-22T07:37:28;3.10;99.90
10660;DHT22;5378;53.206;13.316;2023-02-22T07:40:16;3.00;99.90
10660;DHT22;5378;53.206;13.316;2023-02-22T07:43:12;2.90;99.90
10660;DHT22;5378;53.206;13.316;2023-02-22T07:46:00;3.00;99.90
10660;DHT22;5378;53.206;13.316;2023-02-22T07:48:47;3.20;99.90
10660;DHT22;5378;53.206;13.316;2023-02-22T07:51:34;3.50;99.90
10660;DHT22;5378;53.206;13.316;2023-02-22T07:54:23;3.50;99.90
10660;DHT22;5378;53.206;13.316;2023-02-22T07:57:10;3.80;99.90
10660;DHT22;5378;53.206;13.316;2023-02-22T07:59:58;4.00;99.90
10660;DHT22;5378;53.206;13.316;2023-02-22T08:02:45;4.00;99.90
10660;DHT22;5378;53.206;13.316;2023-02-22T08:05:33;4.10;99.90
10660;DHT22;5378;53.206;13.316;2023-02-22T08:08:21;4.30;99.90
10660;DHT22;5378;53.206;13.316;2023-02-22T08:11:10;4.40;99.90
10660;DHT22;5378;53.206;13.316;2023-02-22T08:13:57;4.60;99.90
10660;DHT22;5378;53.206;13.316;2023-02-22T08:16:44;4.80;99.90
10660;DHT22;5378;53.206;13.316;2023-02-22T08:19:31;4.80;99.90
10660;DHT22;5378;53.206;13.316;2023-02-22T08:22:18;4.80;99.90
10660;DHT22;5378;53.206;13.316;2023-02-22T08:25:07;4.80;99.90
10660;DHT22;5378;53.206;13.316;2023-02-22T08:27:58;4.90;99.90
10660;DHT22;5378;53.206;13.316;2023-02-22T08:30:46;5.00;99.90
10660;DHT22;5378;53.206;13.316;2023-02-22T08:33:33;5.20;99.90
10660;DHT22;5378;53.206;13.316;2023-02-22T08:36:20;5.40;99.90
10660;DHT22;5378;53.206;13.316;2023-02-22T08:39:07;5.50;99.90
10660;DHT22;5378;53.206;13.316;2023-02-22T08:41:54;5.50;99.90
10660;DHT22;5378;53.206;13.316;2023-02-22T08:44:43;5.50;99.90
10660;DHT22;5378;53.206;13.316;2023-02-22T08:47:30;5.70;99.90
10660;DHT22;5378;53.206;13.316;2023-02-22T08:50:20;5.80;99.90
10660;DHT22;5378;53.206;13.316;2023-02-22T08:53:08;5.90;99.90
10660;DHT22;5378;53.206;13.316;2023-02-22T08:55:55;6.00;99.90
10660;DHT22;5378;53.206;13.316;2023-02-22T08:58:42;6.10;99.90
10660;DHT22;5378;53.206;13.316;2023-02-22T09:01:31;6.20;99.90
10660;DHT22;5378;53.206;13.316;2023-02-22T09:04:20;6.30;99.90
10660;DHT22;5378;53.206;13.316;2023-02-22T09:07:07;6.30;99.90
10660;DHT22;5378;53.206;13.316;2023-02-22T09:09:53;6.30;99.90
10660;DHT22;5378;53.206;13.316;2023-02-22T09:12:41;6.30;99.90
10660;DHT22;5378;53.206;13.316;2023-02-22T09:15:28;6.30;99.90
10660;DHT22;5378;53.206;13.316;2023-02-22T09:18:17;6.30;99.90
10660;DHT22;5378;53.206;13.316;2023-02-22T09:21:05;6.40;99.90
10660;DHT22;5378;53.206;13.316;2023-02-22T09:23:52;6.60;99.90
10660;DHT22;5378;53.206;13.316;2023-02-22T09:26:45;6.80;99.90
10660;DHT22;5378;53.206;13.316;2023-02-22T09:29:32;7.00;99.90
10660;DHT22;5378;53.206;13.316;2023-02-22T09:32:19;7.10;99.90
10660;DHT22;5378;53.206;13.316;2023-02-22T09:35:08;7.20;99.90
10660;DHT22;5378;53.206;13.316;2023-02-22T09:37:56;7.30;99.90
10660;DHT22;5378;53.206;13.316;2023-02-22T09:40:47;7.40;99.90
10660;DHT22;5378;53.206;13.316;2023-02-22T09:43:38;7.60;99.90
10660;DHT22;5378;53.206;13.316;2023-02-22T09:46:31;7.70;99.90
10660;DHT22;5378;53.206;13.316;2023-02-22T09:49:22;7.90;99.90
10660;DHT22;5378;53.206;13.316;2023-02-22T09:52:15;8.20;99.90
10660;DHT22;5378;53.206;13.316;2023-02-22T09:55:08;8.30;99.90
10660;DHT22;5378;53.206;13.316;2023-02-22T09:57:57;8.50;99.90
10660;DHT22;5378;53.206;13.316;2023-02-22T10:00:47;8.50;99.90
10660;DHT22;5378;53.206;13.316;2023-02-22T10:03:43;8.50;99.90
10660;DHT22;5378;53.206;13.316;2023-02-22T10:06:32;8.50;99.90
10660;DHT22;5378;53.206;13.316;2023-02-22T10:09:25;8.50;99.90
10660;DHT22;5378;53.206;13.316;2023-02-22T10:12:22;8.60;99.90
10660;DHT22;5378;53.206;13.316;2023-02-22T10:15:38;8.70;99.90
10660;DHT22;5378;53.206;13.316;2023-02-22T10:18:48;8.70;99.90
10660;DHT22;5378;53.206;13.316;2023-02-22T10:21:55;8.70;99.90
10660;DHT22;5378;53.206;13.316;2023-02-22T10:24:55;8.70;99.90
10660;DHT22;5378;53.206;13.316;2023-02-22T10:27:46;8.80;99.90
10660;DHT22;5378;53.206;13.316;2023-02-22T10:30:37;8.90;99.90
10660;DHT22;5378;53.206;13.316;2023-02-22T10:33:29;9.10;99.90
10660;DHT22;5378;53.206;13.316;2023-02-22T10:36:20;9.20;99.90
10660;DHT22;5378;53.206;13.316;2023-02-22T10:39:16;9.40;99.90
10660;DHT22;5378;53.206;13.316;2023-02-22T10:42:08;9.60;99.90
10660;DHT22;5378;53.206;13.316;2023-02-22T10:44:54;9.60;99.90
10660;DHT22;5378;53.206;13.316;2023-02-22T10:47:41;9.60;99.90
10660;DHT22;5378;53.206;13.316;2023-02-22T10:50:30;9.60;99.90
10660;DHT22;5378;53.206;13.316;2023-02-22T10:53:17;9.70;99.90
10660;DHT22;5378;53.206;13.316;2023-02-22T10:56:06;9.70;99.90
10660;DHT22;5378;53.206;13.316;2023-02-22T10:58:57;9.70;99.90
10660;DHT22;5378;53.206;13.316;2023-02-22T11:01:47;9.80;99.90
10660;DHT22;5378;53.206;13.316;2023-02-22T11:04:45;9.90;99.90
10660;DHT22;5378;53.206;13.316;2023-02-22T11:07:34;10.20;99.90
10660;DHT22;5378;53.206;13.316;2023-02-22T11:10:30;10.40;99.90
10660;DHT22;5378;53.206;13.316;2023-02-22T11:13:25;10.50;99.90
10660;DHT22;5378;53.206;13.316;2023-02-22T11:16:19;10.70;99.90
10660;DHT22;5378;53.206;13.316;2023-02-22T11:19:15;10.60;99.90
10660;DHT22;5378;53.206;13.316;2023-02-22T11:22:10;10.60;99.90
10660;DHT22;5378;53.206;13.316;2023-02-22T11:25:01;10.50;99.90
10660;DHT22;5378;53.206;13.316;2023-02-22T11:27:49;10.30;99.90
10660;DHT22;5378;53.206;13.316;2023-02-22T11:30:37;10.10;99.90
10660;DHT22;5378;53.206;13.316;2023-02-22T11:33:26;10.00;99.90
10660;DHT22;5378;53.206;13.316;2023-02-22T11:36:29;10.00;99.90
10660;DHT22;5378;53.206;13.316;2023-02-22T11:39:21;10.10;99.90
10660;DHT22;5378;53.206;13.316;2023-02-22T11:42:20;10.20;99.90
10660;DHT22;5378;53.206;13.316;2023-02-22T11:45:12;10.30;99.90
10660;DHT22;5378;53.206;13.316;2023-02-22T11:48:00;10.20;99.90
10660;DHT22;5378;53.206;13.316;2023-02-22T11:50:57;10.10;99.90
10660;DHT22;5378;53.206;13.316;2023-02-22T11:54:04;10.20;99.90
10660;DHT22;5378;53.206;13.316;2023-02-22T11:57:03;10.10;99.90
10660;DHT22;5378;53.206;13.316;2023-02-22T12:00:02;10.10;99.90
10660;DHT22;5378;53.206;13.316;2023-02-22T12:03:18;10.20;99.90
10660;DHT22;5378;53.206;13.316;2023-02-22T12:06:30;10.10;99.90
10660;DHT22;5378;53.206;13.316;2023-02-22T12:09:25;10.00;99.90
10660;DHT22;5378;53.206;13.316;2023-02-22T12:12:22;10.00;99.90
10660;DHT22;5378;53.206;13.316;2023-02-22T12:15:18;10.10;99.90
10660;DHT22;5378;53.206;13.316;2023-02-22T12:18:14;10.10;99.90
10660;DHT22;5378;53.206;13.316;2023-02-22T12:21:08;10.10;99.90
10660;DHT22;5378;53.206;13.316;2023-02-22T12:24:02;10.00;99.90
10660;DHT22;5378;53.206;13.316;2023-02-22T12:26:55;10.00;99.90
10660;DHT22;5378;53.206;13.316;2023-02-22T12:29:49;10.20;99.90
10660;DHT22;5378;53.206;13.316;2023-02-22T12:32:38;10.30;99.90
10660;DHT22;5378;53.206;13.316;2023-02-22T12:35:29;10.30;99.90
10660;DHT22;5378;53.206;13.316;2023-02-22T12:38:23;10.30;99.90
10660;DHT22;5378;53.206;13.316;2023-02-22T12:41:19;10.30;99.90
10660;DHT22;5378;53.206;13.316;2023-02-22T12:44:13;10.10;99.90
10660;DHT22;5378;53.206;13.316;2023-02-22T12:47:04;10.20;99.90
10660;DHT22;5378;53.206;13.316;2023-02-22T12:49:58;10.10;99.90
10660;DHT22;5378;53.206;13.316;2023-02-22T12:52:52;10.10;99.90
10660;DHT22;5378;53.206;13.316;2023-02-22T12:55:46;10.10;99.90
10660;DHT22;5378;53.206;13.316;2023-02-22T12:58:43;10.00;99.90
10660;DHT22;5378;53.206;13.316;2023-02-22T13:01:35;10.00;99.90
10660;DHT22;5378;53.206;13.316;2023-02-22T13:04:23;10.10;99.90
10660;DHT22;5378;53.206;13.316;2023-02-22T13:07:20;10.10;99.90
10660;DHT22;5378;53.206;13.316;2023-02-22T13:10:35;10.10;99.90
10660;DHT22;5378;53.206;13.316;2023-02-22T13:13:31;10.20;99.90
10660;DHT22;5378;53.206;13.316;2023-02-22T13:16:29;10.20;99.90
10660;DHT22;5378;53.206;13.316;2023-02-22T13:19:29;10.20;99.90
10660;DHT22;5378;53.206;13.316;2023-02-22T13:22:24;10.10;99.90
10660;DHT22;5378;53.206;13.316;2023-02-22T13:25:14;9.90;99.90
10660;DHT22;5378;53.206;13.316;2023-02-22T13:28:19;9.90;99.90
10660;DHT22;5378;53.206;13.316;2023-02-22T13:31:34;9.90;99.90
10660;DHT22;5378;53.206;13.316;2023-02-22T13:38:06;9.90;99.90
10660;DHT22;5378;53.206;13.316;2023-02-22T13:41:08;9.90;99.90
10660;DHT22;5378;53.206;13.316;2023-02-22T13:44:37;9.90;99.90
10660;DHT22;5378;53.206;13.316;2023-02-22T13:48:02;9.80;99.90
10660;DHT22;5378;53.206;13.316;2023-02-22T13:51:09;9.90;99.90
10660;DHT22;5378;53.206;13.316;2023-02-22T13:54:02;9.90;99.90
10660;DHT22;5378;53.206;13.316;2023-02-22T13:56:53;9.80;99.90
10660;DHT22;5378;53.206;13.316;2023-02-22T13:59:42;9.90;99.90
10660;DHT22;5378;53.206;13.316;2023-02-22T14:02:33;10.00;99.90
10660;DHT22;5378;53.206;13.316;2023-02-22T14:05:49;10.00;99.90
10660;DHT22;5378;53.206;13.316;2023-02-22T14:08:41;10.00;99.90
10660;DHT22;5378;53.206;13.316;2023-02-22T14:11:49;10.10;99.90
10660;DHT22;5378;53.206;13.316;2023-02-22T14:15:07;10.20;99.90
10660;DHT22;5378;53.206;13.316;2023-02-22T14:18:15;10.30;99.90
10660;DHT22;5378;53.206;13.316;2023-02-22T14:21:06;10.30;99.90
10660;DHT22;5378;53.206;13.316;2023-02-22T14:23:54;10.10;99.90
10660;DHT22;5378;53.206;13.316;2023-02-22T14:26:54;10.20;99.90
10660;DHT22;5378;53.206;13.316;2023-02-22T14:29:49;10.10;99.90
10660;DHT22;5378;53.206;13.316;2023-02-22T14:32:38;9.90;99.90
10660;DHT22;5378;53.206;13.316;2023-02-22T14:35:26;10.00;99.90
10660;DHT22;5378;53.206;13.316;2023-02-22T14:38:34;10.00;99.90
10660;DHT22;5378;53.206;13.316;2023-02-22T14:41:23;9.90;99.90
10660;DHT22;5378;53.206;13.316;2023-02-22T14:44:12;9.90;99.90
10660;DHT22;5378;53.206;13.316;2023-02-22T14:47:03;9.90;99.90
10660;DHT22;5378;53.206;13.316;2023-02-22T14:49:52;9.90;99.90
10660;DHT22;5378;53.206;13.316;2023-02-22T14:52:42;9.90;99.90
10660;DHT22;5378;53.206;13.316;2023-02-22T14:55:38;9.90;99.90
10660;DHT22;5378;53.206;13.316;2023-02-22T14:58:32;9.90;99.90
10660;DHT22;5378;53.206;13.316;2023-02-22T15:01:25;10.00;99.90
10660;DHT22;5378;53.206;13.316;2023-02-22T15:04:29;9.80;99.90
10660;DHT22;5378;53.206;13.316;2023-02-22T15:07:21;9.80;99.90
10660;DHT22;5378;53.206;13.316;2023-02-22T15:10:19;9.70;99.90
10660;DHT22;5378;53.206;13.316;2023-02-22T15:13:16;9.80;99.90
10660;DHT22;5378;53.206;13.316;2023-02-22T15:16:04;9.80;99.90
10660;DHT22;5378;53.206;13.316;2023-02-22T15:18:54;9.90;99.90
10660;DHT22;5378;53.206;13.316;2023-02-22T15:21:44;10.00;99.90
10660;DHT22;5378;53.206;13.316;2023-02-22T15:24:32;9.80;99.90
10660;DHT22;5378;53.206;13.316;2023-02-22T15:27:20;9.70;99.90
10660;DHT22;5378;53.206;13.316;2023-02-22T15:30:19;9.70;99.90
10660;DHT22;5378;53.206;13.316;2023-02-22T15:33:15;9.80;99.90
10660;DHT22;5378;53.206;13.316;2023-02-22T15:36:03;9.80;99.90
10660;DHT22;5378;53.206;13.316;2023-02-22T15:38:51;9.80;99.90
10660;DHT22;5378;53.206;13.316;2023-02-22T15:41:40;9.70;99.90
10660;DHT22;5378;53.206;13.316;2023-02-22T15:44:27;9.60;99.90
10660;DHT22;5378;53.206;13.316;2023-02-22T15:47:18;9.60;99.90
10660;DHT22;5378;53.206;13.316;2023-02-22T15:50:18;9.50;99.90
10660;DHT22;5378;53.206;13.316;2023-02-22T15:53:23;9.50;99.90
10660;DHT22;5378;53.206;13.316;2023-02-22T15:56:13;9.40;99.90
10660;DHT22;5378;53.206;13.316;2023-02-22T15:59:03;9.40;99.90
10660;DHT22;5378;53.206;13.316;2023-02-22T16:01:52;9.30;99.90
10660;DHT22;5378;53.206;13.316;2023-02-22T16:04:40;9.30;99.90
10660;DHT22;5378;53.206;13.316;2023-02-22T16:07:38;9.30;99.90
10660;DHT22;5378;53.206;13.316;2023-02-22T16:10:31;9.30;99.90
10660;DHT22;5378;53.206;13.316;2023-02-22T16:13:21;9.40;99.90
10660;DHT22;5378;53.206;13.316;2023-02-22T16:16:27;9.20;99.90
10660;DHT22;5378;53.206;13.316;2023-02-22T16:19:28;9.10;99.90
10660;DHT22;5378;53.206;13.316;2023-02-22T16:22:28;9.00;99.90
10660;DHT22;5378;53.206;13.316;2023-02-22T16:25:29;9.00;99.90
10660;DHT22;5378;53.206;13.316;2023-02-22T16:28:25;9.10;99.90
10660;DHT22;5378;53.206;13.316;2023-02-22T16:31:13;9.10;99.90
10660;DHT22;5378;53.206;13.316;2023-02-22T16:34:00;9.10;99.90
10660;DHT22;5378;53.206;13.316;2023-02-22T16:36:49;9.10;99.90
10660;DHT22;5378;53.206;13.316;2023-02-22T16:39:37;9.00;99.90
10660;DHT22;5378;53.206;13.316;2023-02-22T16:42:26;8.90;99.90
10660;DHT22;5378;53.206;13.316;2023-02-22T16:45:15;8.80;99.90
10660;DHT22;5378;53.206;13.316;2023-02-22T16:48:12;8.80;99.90
10660;DHT22;5378;53.206;13.316;2023-02-22T16:51:05;8.80;99.90
10660;DHT22;5378;53.206;13.316;2023-02-22T16:53:53;8.80;99.90
10660;DHT22;5378;53.206;13.316;2023-02-22T16:56:42;8.80;99.90
10660;DHT22;5378;53.206;13.316;2023-02-22T16:59:30;8.80;99.90
10660;DHT22;5378;53.206;13.316;2023-02-22T17:02:18;8.80;99.90
10660;DHT22;5378;53.206;13.316;2023-02-22T17:05:07;8.80;99.90
10660;DHT22;5378;53.206;13.316;2023-02-22T17:07:58;8.70;99.90
10660;DHT22;5378;53.206;13.316;2023-02-22T17:10:45;8.70;99.90
10660;DHT22;5378;53.206;13.316;2023-02-22T17:13:37;8.80;99.90
10660;DHT22;5378;53.206;13.316;2023-02-22T17:16:26;8.80;99.90
10660;DHT22;5378;53.206;13.316;2023-02-22T17:19:15;8.80;99.90
10660;DHT22;5378;53.206;13.316;2023-02-22T17:22:02;8.80;99.90
10660;DHT22;5378;53.206;13.316;2023-02-22T17:24:51;8.70;99.90
10660;DHT22;5378;53.206;13.316;2023-02-22T17:27:38;8.70;99.90
10660;DHT22;5378;53.206;13.316;2023-02-22T17:30:26;8.70;99.90
10660;DHT22;5378;53.206;13.316;2023-02-22T17:33:19;8.70;99.90
10660;DHT22;5378;53.206;13.316;2023-02-22T17:36:07;8.70;99.90
10660;DHT22;5378;53.206;13.316;2023-02-22T17:38:54;8.60;99.90
10660;DHT22;5378;53.206;13.316;2023-02-22T17:41:41;8.60;99.90
10660;DHT22;5378;53.206;13.316;2023-02-22T17:44:27;8.50;99.90
10660;DHT22;5378;53.206;13.316;2023-02-22T17:47:16;8.60;99.90
10660;DHT22;5378;53.206;13.316;2023-02-22T17:50:03;8.50;99.90
10660;DHT22;5378;53.206;13.316;2023-02-22T17:52:51;8.50;99.90
10660;DHT22;5378;53.206;13.316;2023-02-22T17:55:39;8.50;99.90
10660;DHT22;5378;53.206;13.316;2023-02-22T17:58:26;8.50;99.90
10660;DHT22;5378;53.206;13.316;2023-02-22T18:01:20;8.40;99.90
10660;DHT22;5378;53.206;13.316;2023-02-22T18:04:10;8.30;99.90
10660;DHT22;5378;53.206;13.316;2023-02-22T18:06:57;8.40;99.90
10660;DHT22;5378;53.206;13.316;2023-02-22T18:09:44;8.40;99.90
10660;DHT22;5378;53.206;13.316;2023-02-22T18:12:31;8.40;99.90
10660;DHT22;5378;53.206;13.316;2023-02-22T18:15:19;8.40;99.90
10660;DHT22;5378;53.206;13.316;2023-02-22T18:18:06;8.40;99.90
10660;DHT22;5378;53.206;13.316;2023-02-22T18:20:55;8.40;99.90
10660;DHT22;5378;53.206;13.316;2023-02-22T18:23:44;8.30;99.90